sensor_id;sensor_type;location;lat;lon;timestamp;pressure;altitude;pressure_sealevel;temperature;humidity
63954;BME280;50128;52.094;5.232;2023-04-15T00:00:16;95647.0;;;-21.43;57.4
63954;BME280;50128;52.094;5.232;2023-04-15T00:01:52;95634.0;;;-21.53;57.55
63954;BME280;50128;52.094;5.232;2023-04-15T00:03:28;95664.0;;;-21.32;57.61
63954;BME280;50128;52.094;5.232;2023-04-15T00:05:05;95662.0;;;-21.35;57.74
63954;BME280;50128;52.094;5.232;2023-04-15T00:08:18;95700.0;;;-21.13;57.88
63954;BME280;50128;52.094;5.232;2023-04-15T00:09:54;95683.0;;;-21.26;58.01
63954;BME280;50128;52.094;5.232;2023-04-15T00:11:30;95688.0;;;-21.29;58.43
63954;BME280;50128;52.094;5.232;2023-04-15T00:14:42;95681.0;;;-21.28;58.56
63954;BME280;50128;52.094;5.232;2023-04-15T00:16:18;95675.0;;;-21.4;58.53
63954;BME280;50128;52.094;5.232;2023-04-15T00:17:54;95685.0;;;-21.33;58.62
63954;BME280;50128;52.094;5.232;2023-04-15T00:21:07;95658.0;;;-21.4;58.64
63954;BME280;50128;52.094;5.232;2023-04-15T00:22:43;95661.0;;;-21.51;59.02
63954;BME280;50128;52.094;5.232;2023-04-15T00:24:19;95655.0;;;-21.55;59.37
63954;BME280;50128;52.094;5.232;2023-04-15T00:25:55;95664.0;;;-21.48;59.26
63954;BME280;50128;52.094;5.232;2023-04-15T00:29:07;95656.0;;;-21.56;59.44
63954;BME280;50128;52.094;5.232;2023-04-15T00:30:44;95649.0;;;-21.6;59.47
63954;BME280;50128;52.094;5.232;2023-04-15T00:32:20;95609.0;;;-21.88;59.81
63954;BME280;50128;52.094;5.232;2023-04-15T00:35:33;95639.0;;;-21.76;59.96
63954;BME280;50128;52.094;5.232;2023-04-15T00:37:09;95615.0;;;-22.02;60.39
63954;BME280;50128;52.094;5.232;2023-04-15T00:38:45;95570.0;;;-22.25;60.2
63954;BME280;50128;52.094;5.232;2023-04-15T00:41:59;95622.0;;;-21.9;60.16
63954;BME280;50128;52.094;5.232;2023-04-15T00:43:35;95625.0;;;-21.87;60.24
63954;BME280;50128;52.094;5.232;2023-04-15T00:45:11;95617.0;;;-21.91;60.36
63954;BME280;50128;52.094;5.232;2023-04-15T00:48:26;95658.0;;;-21.86;60.81
63954;BME280;50128;52.094;5.232;2023-04-15T00:50:04;95640.0;;;-21.89;60.72
63954;BME280;50128;52.094;5.232;2023-04-15T00:51:40;95641.0;;;-21.93;60.76
63954;BME280;50128;52.094;5.232;2023-04-15T00:53:16;95607.0;;;-22.16;60.94
63954;BME280;50128;52.094;5.232;2023-04-15T00:56:34;95635.0;;;-22.06;61.15
63954;BME280;50128;52.094;5.232;2023-04-15T00:58:11;95655.0;;;-21.93;61.35
63954;BME280;50128;52.094;5.232;2023-04-15T00:59:47;95628.0;;;-22.05;61.19
63954;BME280;50128;52.094;5.232;2023-04-15T01:03:00;95643.0;;;-22.08;61.47
63954;BME280;50128;52.094;5.232;2023-04-15T01:04:36;95620.0;;;-22.26;61.79
63954;BME280;50128;52.094;5.232;2023-04-15T01:06:12;95655.0;;;-22.1;62.04
63954;BME280;50128;52.094;5.232;2023-04-15T01:07:48;95651.0;;;-22.1;62.16
63954;BME280;50128;52.094;5.232;2023-04-15T01:11:01;95655.0;;;-22.17;62.43
63954;BME280;50128;52.094;5.232;2023-04-15T01:12:38;95643.0;;;-22.2;62.67
63954;BME280;50128;52.094;5.232;2023-04-15T01:14:14;95622.0;;;-22.43;62.83
63954;BME280;50128;52.094;5.232;2023-04-15T01:17:27;95652.0;;;-22.17;62.68
63954;BME280;50128;52.094;5.232;2023-04-15T01:19:03;95605.0;;;-22.44;62.72
63954;BME280;50128;52.094;5.232;2023-04-15T01:20:40;95643.0;;;-22.27;62.87
63954;BME280;50128;52.094;5.232;2023-04-15T01:23:54;95655.0;;;-22.12;62.67
63954;BME280;50128;52.094;5.232;2023-04-15T01:25:31;95662.0;;;-22.05;62.68
63954;BME280;50128;52.094;5.232;2023-04-15T01:27:07;95630.0;;;-22.28;62.74
63954;BME280;50128;52.094;5.232;2023-04-15T01:28:43;95652.0;;;-22.15;62.95
63954;BME280;50128;52.094;5.232;2023-04-15T01:31:55;95630.0;;;-22.28;62.91
63954;BME280;50128;52.094;5.232;2023-04-15T01:33:31;95640.0;;;-22.29;63.34
63954;BME280;50128;52.094;5.232;2023-04-15T01:35:08;95647.0;;;-22.24;63.53
63954;BME280;50128;52.094;5.232;2023-04-15T01:38:20;95634.0;;;-22.34;63.63
63954;BME280;50128;52.094;5.232;2023-04-15T01:39:56;95650.0;;;-22.19;63.42
63954;BME280;50128;52.094;5.232;2023-04-15T01:41:32;95638.0;;;-22.31;63.81
63954;BME280;50128;52.094;5.232;2023-04-15T01:44:44;95650.0;;;-22.28;63.97
63954;BME280;50128;52.094;5.232;2023-04-15T01:46:21;95664.0;;;-22.2;64.13
63954;BME280;50128;52.094;5.232;2023-04-15T01:47:57;95654.0;;;-22.28;64.35
63954;BME280;50128;52.094;5.232;2023-04-15T01:49:34;95657.0;;;-22.18;64.12
63954;BME280;50128;52.094;5.232;2023-04-15T01:52:46;95578.0;;;-22.7;64.3
63954;BME280;50128;52.094;5.232;2023-04-15T01:54:22;95645.0;;;-22.28;64.33
63954;BME280;50128;52.094;5.232;2023-04-15T01:55:58;95563.0;;;-22.84;64.47
63954;BME280;50128;52.094;5.232;2023-04-15T01:59:10;95654.0;;;-22.31;64.73
63954;BME280;50128;52.094;5.232;2023-04-15T02:00:46;95570.0;;;-22.89;64.97
63954;BME280;50128;52.094;5.232;2023-04-15T02:02:22;95617.0;;;-22.53;64.91
63954;BME280;50128;52.094;5.232;2023-04-15T02:05:35;95664.0;;;-22.26;65.16
63954;BME280;50128;52.094;5.232;2023-04-15T02:07:11;95646.0;;;-22.45;65.69
63954;BME280;50128;52.094;5.232;2023-04-15T02:08:47;95636.0;;;-22.44;65.56
63954;BME280;50128;52.094;5.232;2023-04-15T02:11:59;95647.0;;;-22.34;65.53
63954;BME280;50128;52.094;5.232;2023-04-15T02:13:35;95652.0;;;-22.39;65.84
63954;BME280;50128;52.094;5.232;2023-04-15T02:15:12;95587.0;;;-22.86;66.33
63954;BME280;50128;52.094;5.232;2023-04-15T02:16:48;95560.0;;;-23.01;66.34
63954;BME280;50128;52.094;5.232;2023-04-15T02:19:59;95517.0;;;-23.29;66.35
63954;BME280;50128;52.094;5.232;2023-04-15T02:21:34;95562.0;;;-23.16;66.8
63954;BME280;50128;52.094;5.232;2023-04-15T02:23:10;95686.0;;;-22.38;66.94
63954;BME280;50128;52.094;5.232;2023-04-15T02:26:21;95652.0;;;-22.6;67.08
63954;BME280;50128;52.094;5.232;2023-04-15T02:27:57;95607.0;;;-22.99;67.62
63954;BME280;50128;52.094;5.232;2023-04-15T02:29:33;95663.0;;;-22.65;68.03
63954;BME280;50128;52.094;5.232;2023-04-15T02:32:44;95596.0;;;-23.08;68.0
63954;BME280;50128;52.094;5.232;2023-04-15T02:34:20;95662.0;;;-22.72;68.48
63954;BME280;50128;52.094;5.232;2023-04-15T02:35:56;95614.0;;;-23.06;68.3
63954;BME280;50128;52.094;5.232;2023-04-15T02:39:11;95661.0;;;-22.85;68.59
63954;BME280;50128;52.094;5.232;2023-04-15T02:40:47;95634.0;;;-23.08;69.22
63954;BME280;50128;52.094;5.232;2023-04-15T02:42:23;95638.0;;;-23.08;69.38
63954;BME280;50128;52.094;5.232;2023-04-15T02:43:59;95590.0;;;-23.38;69.48
63954;BME280;50128;52.094;5.232;2023-04-15T02:47:11;95655.0;;;-22.93;69.44
63954;BME280;50128;52.094;5.232;2023-04-15T02:48:48;95553.0;;;-23.64;69.87
63954;BME280;50128;52.094;5.232;2023-04-15T02:50:25;95644.0;;;-23.1;70.28
63954;BME280;50128;52.094;5.232;2023-04-15T02:53:37;95720.0;;;-22.62;70.22
63954;BME280;50128;52.094;5.232;2023-04-15T02:55:13;95674.0;;;-22.95;70.69
63954;BME280;50128;52.094;5.232;2023-04-15T02:56:49;95707.0;;;-22.86;71.44
63954;BME280;50128;52.094;5.232;2023-04-15T03:00:02;95717.0;;;-22.77;71.49
63954;BME280;50128;52.094;5.232;2023-04-15T03:01:39;95701.0;;;-22.87;71.89
63954;BME280;50128;52.094;5.232;2023-04-15T03:03:15;95642.0;;;-23.26;71.94
63954;BME280;50128;52.094;5.232;2023-04-15T03:06:27;95704.0;;;-22.84;72.05
63954;BME280;50128;52.094;5.232;2023-04-15T03:08:03;95776.0;;;-22.51;72.52
63954;BME280;50128;52.094;5.232;2023-04-15T03:09:39;95687.0;;;-23.09;72.86
63954;BME280;50128;52.094;5.232;2023-04-15T03:11:15;95676.0;;;-23.02;72.52
63954;BME280;50128;52.094;5.232;2023-04-15T03:14:28;95748.0;;;-22.6;72.7
63954;BME280;50128;52.094;5.232;2023-04-15T03:16:04;95739.0;;;-22.72;73.27
63954;BME280;50128;52.094;5.232;2023-04-15T03:17:41;95720.0;;;-22.91;73.52
63954;BME280;50128;52.094;5.232;2023-04-15T03:20:53;95729.0;;;-22.85;73.97
63954;BME280;50128;52.094;5.232;2023-04-15T03:22:29;95782.0;;;-22.55;74.05
63954;BME280;50128;52.094;5.232;2023-04-15T03:24:05;95731.0;;;-22.94;74.28
63954;BME280;50128;52.094;5.232;2023-04-15T03:27:20;95784.0;;;-22.67;74.72
63954;BME280;50128;52.094;5.232;2023-04-15T03:28:56;95756.0;;;-22.82;74.69
63954;BME280;50128;52.094;5.232;2023-04-15T03:30:33;95769.0;;;-22.79;74.77
63954;BME280;50128;52.094;5.232;2023-04-15T03:32:09;95702.0;;;-23.14;74.83
63954;BME280;50128;52.094;5.232;2023-04-15T03:35:21;95763.0;;;-22.77;74.91
63954;BME280;50128;52.094;5.232;2023-04-15T03:36:58;95792.0;;;-22.72;75.91
63954;BME280;50128;52.094;5.232;2023-04-15T03:38:34;95765.0;;;-22.92;75.94
63954;BME280;50128;52.094;5.232;2023-04-15T03:41:47;95814.0;;;-22.63;76.09
63954;BME280;50128;52.094;5.232;2023-04-15T03:43:23;95812.0;;;-22.64;76.08
63954;BME280;50128;52.094;5.232;2023-04-15T03:44:59;95740.0;;;-23.16;76.48
63954;BME280;50128;52.094;5.232;2023-04-15T03:48:12;95816.0;;;-22.67;76.47
63954;BME280;50128;52.094;5.232;2023-04-15T03:49:48;95839.0;;;-22.61;76.83
63954;BME280;50128;52.094;5.232;2023-04-15T03:51:24;95826.0;;;-22.72;76.86
63954;BME280;50128;52.094;5.232;2023-04-15T03:53:00;95812.0;;;-22.82;77.08
63954;BME280;50128;52.094;5.232;2023-04-15T03:56:12;95819.0;;;-22.81;77.23
63954;BME280;50128;52.094;5.232;2023-04-15T03:57:48;95791.0;;;-22.91;77.33
63954;BME280;50128;52.094;5.232;2023-04-15T03:59:24;95766.0;;;-23.17;77.44
63954;BME280;50128;52.094;5.232;2023-04-15T04:02:37;95825.0;;;-22.82;77.94
63954;BME280;50128;52.094;5.232;2023-04-15T04:04:13;95808.0;;;-23.04;78.23
63954;BME280;50128;52.094;5.232;2023-04-15T04:05:49;95848.0;;;-22.9;78.74
63954;BME280;50128;52.094;5.232;2023-04-15T04:09:03;95850.0;;;-22.92;79.23
63954;BME280;50128;52.094;5.232;2023-04-15T04:10:39;95853.0;;;-22.95;79.5
63954;BME280;50128;52.094;5.232;2023-04-15T04:12:15;95843.0;;;-23.07;80.09
63954;BME280;50128;52.094;5.232;2023-04-15T04:15:28;95822.0;;;-23.27;80.37
63954;BME280;50128;52.094;5.232;2023-04-15T04:17:06;95849.0;;;-23.07;80.25
63954;BME280;50128;52.094;5.232;2023-04-15T04:18:42;95786.0;;;-23.46;80.2
63954;BME280;50128;52.094;5.232;2023-04-15T04:21:56;95854.0;;;-23.07;80.19
63954;BME280;50128;52.094;5.232;2023-04-15T04:23:33;95822.0;;;-23.37;80.86
63954;BME280;50128;52.094;5.232;2023-04-15T04:25:09;95990.0;;;-22.27;80.63
63954;BME280;50128;52.094;5.232;2023-04-15T04:26:46;96056.0;;;-21.87;80.81
63954;BME280;50128;52.094;5.232;2023-04-15T04:29:59;96022.0;;;-22.11;81.08
63954;BME280;50128;52.094;5.232;2023-04-15T04:31:36;96041.0;;;-22.04;81.16
63954;BME280;50128;52.094;5.232;2023-04-15T04:33:13;96043.0;;;-22.14;81.8
63954;BME280;50128;52.094;5.232;2023-04-15T04:36:25;96020.0;;;-22.38;82.35
63954;BME280;50128;52.094;5.232;2023-04-15T04:38:01;96013.0;;;-22.48;82.75
63954;BME280;50128;52.094;5.232;2023-04-15T04:39:37;96019.0;;;-22.41;82.61
63954;BME280;50128;52.094;5.232;2023-04-15T04:42:51;96063.0;;;-22.26;83.29
63954;BME280;50128;52.094;5.232;2023-04-15T04:44:27;96119.0;;;-21.93;83.03
63954;BME280;50128;52.094;5.232;2023-04-15T04:46:04;96109.0;;;-22.07;83.55
63954;BME280;50128;52.094;5.232;2023-04-15T04:49:17;96130.0;;;-22.01;83.86
63954;BME280;50128;52.094;5.232;2023-04-15T04:50:54;96140.0;;;-21.95;83.71
63954;BME280;50128;52.094;5.232;2023-04-15T04:52:30;96130.0;;;-22.12;84.32
63954;BME280;50128;52.094;5.232;2023-04-15T04:54:09;96126.0;;;-22.07;83.96
63954;BME280;50128;52.094;5.232;2023-04-15T04:57:22;96128.0;;;-22.14;84.56
63954;BME280;50128;52.094;5.232;2023-04-15T04:58:59;96432.0;;;-20.25;84.62
63954;BME280;50128;52.094;5.232;2023-04-15T05:00:35;96420.0;;;-20.3;84.85
63954;BME280;50128;52.094;5.232;2023-04-15T05:05:25;96443.0;;;-20.24;84.62
63954;BME280;50128;52.094;5.232;2023-04-15T05:07:01;96348.0;;;-20.81;84.68
63954;BME280;50128;52.094;5.232;2023-04-15T05:08:38;96479.0;;;-20.12;85.33
63954;BME280;50128;52.094;5.232;2023-04-15T05:11:51;96298.0;;;-21.18;85.13
63954;BME280;50128;52.094;5.232;2023-04-15T05:15:06;96412.0;;;-20.62;85.63
63954;BME280;50128;52.094;5.232;2023-04-15T05:18:19;96407.0;;;-20.7;85.72
63954;BME280;50128;52.094;5.232;2023-04-15T05:19:55;96358.0;;;-20.91;85.38
63954;BME280;50128;52.094;5.232;2023-04-15T05:21:31;96450.0;;;-20.42;85.59
63954;BME280;50128;52.094;5.232;2023-04-15T05:24:44;96371.0;;;-20.95;85.46
63954;BME280;50128;52.094;5.232;2023-04-15T05:26:21;96371.0;;;-21.09;86.22
63954;BME280;50128;52.094;5.232;2023-04-15T05:27:57;96372.0;;;-21.09;86.27
63954;BME280;50128;52.094;5.232;2023-04-15T05:29:33;96394.0;;;-20.92;86.28
63954;BME280;50128;52.094;5.232;2023-04-15T05:32:45;96413.0;;;-20.88;86.62
63954;BME280;50128;52.094;5.232;2023-04-15T05:34:21;96448.0;;;-20.76;87.38
63954;BME280;50128;52.094;5.232;2023-04-15T05:35:58;96407.0;;;-20.97;87.05
63954;BME280;50128;52.094;5.232;2023-04-15T05:39:11;96436.0;;;-20.83;87.37
63954;BME280;50128;52.094;5.232;2023-04-15T05:40:47;96444.0;;;-20.87;88.04
63954;BME280;50128;52.094;5.232;2023-04-15T05:42:23;96455.0;;;-20.74;88.0
63954;BME280;50128;52.094;5.232;2023-04-15T05:44:00;96395.0;;;-21.12;87.73
63954;BME280;50128;52.094;5.232;2023-04-15T05:47:12;96406.0;;;-20.99;87.51
63954;BME280;50128;52.094;5.232;2023-04-15T05:48:48;96480.0;;;-20.6;88.19
63954;BME280;50128;52.094;5.232;2023-04-15T05:50:24;96416.0;;;-21.0;88.22
63954;BME280;50128;52.094;5.232;2023-04-15T05:53:37;96410.0;;;-21.05;88.14
63954;BME280;50128;52.094;5.232;2023-04-15T05:55:13;96450.0;;;-20.85;88.61
63954;BME280;50128;52.094;5.232;2023-04-15T05:56:49;96457.0;;;-20.76;88.24
63954;BME280;50128;52.094;5.232;2023-04-15T06:00:02;96400.0;;;-21.11;88.22
63954;BME280;50128;52.094;5.232;2023-04-15T06:01:39;96399.0;;;-21.09;88.05
63954;BME280;50128;52.094;5.232;2023-04-15T06:03:15;96521.0;;;-20.32;88.0
63954;BME280;50128;52.094;5.232;2023-04-15T06:04:51;96487.0;;;-20.61;88.48
63954;BME280;50128;52.094;5.232;2023-04-15T06:08:03;96447.0;;;-20.79;88.25
63954;BME280;50128;52.094;5.232;2023-04-15T06:09:40;96421.0;;;-20.99;88.44
63954;BME280;50128;52.094;5.232;2023-04-15T06:11:17;96453.0;;;-20.81;88.82
63954;BME280;50128;52.094;5.232;2023-04-15T06:14:29;96442.0;;;-20.81;88.54
63954;BME280;50128;52.094;5.232;2023-04-15T06:16:06;96549.0;;;-20.17;88.61
63954;BME280;50128;52.094;5.232;2023-04-15T06:17:41;96480.0;;;-20.48;88.43
63954;BME280;50128;52.094;5.232;2023-04-15T06:20:54;96419.0;;;-20.8;88.08
63954;BME280;50128;52.094;5.232;2023-04-15T06:22:30;96424.0;;;-20.6;87.35
63954;BME280;50128;52.094;5.232;2023-04-15T06:24:06;96499.0;;;-20.05;86.85
63954;BME280;50128;52.094;5.232;2023-04-15T06:25:42;96417.0;;;-20.53;86.72
63954;BME280;50128;52.094;5.232;2023-04-15T06:28:54;96456.0;;;-20.16;86.68
63954;BME280;50128;52.094;5.232;2023-04-15T06:30:31;96473.0;;;-19.9;85.83
63954;BME280;50128;52.094;5.232;2023-04-15T06:32:07;96492.0;;;-19.6;84.87
63954;BME280;50128;52.094;5.232;2023-04-15T06:35:20;96451.0;;;-19.57;83.67
63954;BME280;50128;52.094;5.232;2023-04-15T06:36:56;96536.0;;;-18.76;82.21
63954;BME280;50128;52.094;5.232;2023-04-15T06:38:32;96495.0;;;-18.64;80.28
63954;BME280;50128;52.094;5.232;2023-04-15T06:41:45;96468.0;;;-18.55;78.72
63954;BME280;50128;52.094;5.232;2023-04-15T06:43:21;96395.0;;;-18.65;76.88
63954;BME280;50128;52.094;5.232;2023-04-15T06:44:57;96409.0;;;-18.42;75.36
63954;BME280;50128;52.094;5.232;2023-04-15T06:48:10;96406.0;;;-18.08;73.74
63954;BME280;50128;52.094;5.232;2023-04-15T06:49:46;96367.0;;;-18.24;72.56
63954;BME280;50128;52.094;5.232;2023-04-15T06:51:22;96380.0;;;-17.84;71.41
63954;BME280;50128;52.094;5.232;2023-04-15T06:52:58;96497.0;;;-17.03;71.22
63954;BME280;50128;52.094;5.232;2023-04-15T06:56:10;96381.0;;;-17.44;69.75
63954;BME280;50128;52.094;5.232;2023-04-15T06:57:47;96412.0;;;-17.18;69.61
63954;BME280;50128;52.094;5.232;2023-04-15T06:59:23;96468.0;;;-16.55;68.47
63954;BME280;50128;52.094;5.232;2023-04-15T07:02:35;96468.0;;;-16.45;67.08
63954;BME280;50128;52.094;5.232;2023-04-15T07:04:11;96400.0;;;-16.64;66.56
63954;BME280;50128;52.094;5.232;2023-04-15T07:05:48;96506.0;;;-15.8;65.64
63954;BME280;50128;52.094;5.232;2023-04-15T07:09:00;96392.0;;;-16.35;64.91
63954;BME280;50128;52.094;5.232;2023-04-15T07:10:36;96507.0;;;-15.64;64.06
63954;BME280;50128;52.094;5.232;2023-04-15T07:12:12;96458.0;;;-15.92;64.42
63954;BME280;50128;52.094;5.232;2023-04-15T07:13:48;96434.0;;;-16.16;63.89
63954;BME280;50128;52.094;5.232;2023-04-15T07:17:01;96602.0;;;-15.24;64.45
63954;BME280;50128;52.094;5.232;2023-04-15T07:18:38;96620.0;;;-15.37;65.3
63954;BME280;50128;52.094;5.232;2023-04-15T07:20:14;96608.0;;;-15.45;65.91
63954;BME280;50128;52.094;5.232;2023-04-15T07:23:27;96547.0;;;-15.85;65.59
63954;BME280;50128;52.094;5.232;2023-04-15T09:19:36;96712.0;;;-14.44;56.45
63954;BME280;50128;52.094;5.232;2023-04-15T09:21:13;96655.0;;;-14.58;55.16
63954;BME280;50128;52.094;5.232;2023-04-15T09:24:35;96708.0;;;-14.25;54.53
63954;BME280;50128;52.094;5.232;2023-04-15T09:26:12;96730.0;;;-13.85;56.4
63954;BME280;50128;52.094;5.232;2023-04-15T09:27:52;96726.0;;;-13.8;55.91
63954;BME280;50128;52.094;5.232;2023-04-15T09:29:29;96752.0;;;-13.85;53.69
63954;BME280;50128;52.094;5.232;2023-04-15T09:32:48;96736.0;;;-14.1;53.08
63954;BME280;50128;52.094;5.232;2023-04-15T09:34:34;96743.0;;;-14.0;53.84
63954;BME280;50128;52.094;5.232;2023-04-15T09:36:11;96743.0;;;-14.18;54.09
63954;BME280;50128;52.094;5.232;2023-04-15T09:37:48;96743.0;;;-14.18;54.83
63954;BME280;50128;52.094;5.232;2023-04-15T09:41:01;96755.0;;;-13.97;53.79
63954;BME280;50128;52.094;5.232;2023-04-15T09:42:53;96762.0;;;-13.88;54.48
63954;BME280;50128;52.094;5.232;2023-04-15T09:44:29;96780.0;;;-13.9;52.71
63954;BME280;50128;52.094;5.232;2023-04-15T09:46:06;96787.0;;;-13.8;53.17
63954;BME280;50128;52.094;5.232;2023-04-15T09:49:18;96772.0;;;-13.58;54.3
63954;BME280;50128;52.094;5.232;2023-04-15T09:50:56;96752.0;;;-13.79;54.46
63954;BME280;50128;52.094;5.232;2023-04-15T09:52:40;96845.0;;;-13.22;53.82
63954;BME280;50128;52.094;5.232;2023-04-15T09:54:18;96786.0;;;-13.38;54.76
63954;BME280;50128;52.094;5.232;2023-04-15T09:57:33;96780.0;;;-13.35;54.46
63954;BME280;50128;52.094;5.232;2023-04-15T09:59:09;96767.0;;;-13.34;54.98
63954;BME280;50128;52.094;5.232;2023-04-15T10:00:46;96782.0;;;-13.3;53.86
63954;BME280;50128;52.094;5.232;2023-04-15T10:04:03;96929.0;;;-12.54;55.06
63954;BME280;50128;52.094;5.232;2023-04-15T10:05:40;96883.0;;;-12.74;55.41
63954;BME280;50128;52.094;5.232;2023-04-15T10:07:16;96904.0;;;-12.6;55.17
63954;BME280;50128;52.094;5.232;2023-04-15T10:08:56;96928.0;;;-12.68;53.28
63954;BME280;50128;52.094;5.232;2023-04-15T10:12:10;96921.0;;;-12.82;53.62
63954;BME280;50128;52.094;5.232;2023-04-15T10:13:48;96925.0;;;-12.75;54.42
63954;BME280;50128;52.094;5.232;2023-04-15T10:15:25;96947.0;;;-12.16;56.58
63954;BME280;50128;52.094;5.232;2023-04-15T10:18:42;96927.0;;;-12.21;53.82
63954;BME280;50128;52.094;5.232;2023-04-15T10:20:21;96946.0;;;-12.34;52.67
63954;BME280;50128;52.094;5.232;2023-04-15T10:21:58;96934.0;;;-12.24;54.08
63954;BME280;50128;52.094;5.232;2023-04-15T10:23:34;96943.0;;;-12.09;53.05
63954;BME280;50128;52.094;5.232;2023-04-15T10:26:47;96924.0;;;-12.04;54.07
63954;BME280;50128;52.094;5.232;2023-04-15T10:28:25;97040.0;;;-11.21;52.79
63954;BME280;50128;52.094;5.232;2023-04-15T10:30:02;97047.0;;;-11.27;51.94
63954;BME280;50128;52.094;5.232;2023-04-15T10:33:18;97047.0;;;-11.36;51.71
63954;BME280;50128;52.094;5.232;2023-04-15T10:34:55;96955.0;;;-11.77;51.7
63954;BME280;50128;52.094;5.232;2023-04-15T10:36:32;96938.0;;;-12.02;51.77
63954;BME280;50128;52.094;5.232;2023-04-15T10:40:24;96899.0;;;-12.14;52.32
63954;BME280;50128;52.094;5.232;2023-04-15T10:43:48;97022.0;;;-11.38;52.43
63954;BME280;50128;52.094;5.232;2023-04-15T10:45:32;96933.0;;;-11.88;52.02
63954;BME280;50128;52.094;5.232;2023-04-15T10:47:11;96979.0;;;-11.67;53.59
63954;BME280;50128;52.094;5.232;2023-04-15T10:48:50;96962.0;;;-11.72;52.21
63954;BME280;50128;52.094;5.232;2023-04-15T10:52:07;96982.0;;;-11.43;52.93
63954;BME280;50128;52.094;5.232;2023-04-15T10:53:43;96986.0;;;-11.58;51.56
63954;BME280;50128;52.094;5.232;2023-04-15T10:55:21;96982.0;;;-11.8;53.82
63954;BME280;50128;52.094;5.232;2023-04-15T10:58:44;96934.0;;;-12.01;54.39
63954;BME280;50128;52.094;5.232;2023-04-15T11:00:24;96991.0;;;-11.57;54.2
63954;BME280;50128;52.094;5.232;2023-04-15T11:02:03;96991.0;;;-11.52;53.74
63954;BME280;50128;52.094;5.232;2023-04-15T11:03:41;97026.0;;;-11.56;53.56
63954;BME280;50128;52.094;5.232;2023-04-15T11:07:04;96997.0;;;-11.73;53.84
63954;BME280;50128;52.094;5.232;2023-04-15T11:08:57;97027.0;;;-11.47;52.98
63954;BME280;50128;52.094;5.232;2023-04-15T11:10:51;96995.0;;;-11.59;54.24
63954;BME280;50128;52.094;5.232;2023-04-15T11:12:33;96994.0;;;-11.33;53.73
63954;BME280;50128;52.094;5.232;2023-04-15T11:14:14;96989.0;;;-11.51;52.19
63954;BME280;50128;52.094;5.232;2023-04-15T11:15:55;97037.0;;;-11.28;52.37
63954;BME280;50128;52.094;5.232;2023-04-15T11:19:07;97002.0;;;-11.56;52.52
63954;BME280;50128;52.094;5.232;2023-04-15T11:20:45;97058.0;;;-11.06;53.5
63954;BME280;50128;52.094;5.232;2023-04-15T11:22:21;96996.0;;;-11.63;51.37
63954;BME280;50128;52.094;5.232;2023-04-15T11:25:35;97010.0;;;-11.55;51.58
63954;BME280;50128;52.094;5.232;2023-04-15T11:27:19;96999.0;;;-11.37;51.69
63954;BME280;50128;52.094;5.232;2023-04-15T11:28:55;97000.0;;;-11.37;51.27
63954;BME280;50128;52.094;5.232;2023-04-15T11:30:33;97064.0;;;-11.19;50.65
63954;BME280;50128;52.094;5.232;2023-04-15T11:33:53;97040.0;;;-11.32;51.59
63954;BME280;50128;52.094;5.232;2023-04-15T11:35:29;97084.0;;;-11.25;49.94
63954;BME280;50128;52.094;5.232;2023-04-15T11:37:06;97086.0;;;-11.24;49.77
63954;BME280;50128;52.094;5.232;2023-04-15T11:40:21;97070.0;;;-11.07;50.26
63954;BME280;50128;52.094;5.232;2023-04-15T11:41:59;97041.0;;;-11.22;49.93
63954;BME280;50128;52.094;5.232;2023-04-15T11:43:35;96980.0;;;-12.04;49.61
63954;BME280;50128;52.094;5.232;2023-04-15T11:45:13;97036.0;;;-11.35;50.36
63954;BME280;50128;52.094;5.232;2023-04-15T11:48:26;97052.0;;;-11.49;49.15
63954;BME280;50128;52.094;5.232;2023-04-15T11:50:21;97082.0;;;-11.54;50.13
63954;BME280;50128;52.094;5.232;2023-04-15T11:51:58;97102.0;;;-11.12;50.95
63954;BME280;50128;52.094;5.232;2023-04-15T11:53:36;97038.0;;;-12.09;49.42
63954;BME280;50128;52.094;5.232;2023-04-15T11:56:49;97071.0;;;-11.65;50.03
63954;BME280;50128;52.094;5.232;2023-04-15T11:58:26;97011.0;;;-12.07;50.76
63954;BME280;50128;52.094;5.232;2023-04-15T12:00:05;97025.0;;;-12.01;51.3
63954;BME280;50128;52.094;5.232;2023-04-15T12:03:21;97080.0;;;-11.7;51.38
63954;BME280;50128;52.094;5.232;2023-04-15T12:05:02;97095.0;;;-11.48;50.97
63954;BME280;50128;52.094;5.232;2023-04-15T12:06:39;97063.0;;;-11.85;51.5
63954;BME280;50128;52.094;5.232;2023-04-15T12:08:15;97095.0;;;-11.66;51.01
63954;BME280;50128;52.094;5.232;2023-04-15T12:11:33;97082.0;;;-11.84;51.37
63954;BME280;50128;52.094;5.232;2023-04-15T12:13:13;97083.0;;;-11.69;50.57
63954;BME280;50128;52.094;5.232;2023-04-15T12:14:50;97065.0;;;-11.85;51.11
63954;BME280;50128;52.094;5.232;2023-04-15T12:18:03;97073.0;;;-11.75;51.96
63954;BME280;50128;52.094;5.232;2023-04-15T12:19:40;97054.0;;;-11.7;52.5
63954;BME280;50128;52.094;5.232;2023-04-15T12:21:18;97104.0;;;-11.47;52.09
63954;BME280;50128;52.094;5.232;2023-04-15T12:23:04;97067.0;;;-11.91;51.9
63954;BME280;50128;52.094;5.232;2023-04-15T12:26:25;97163.0;;;-11.18;52.03
63954;BME280;50128;52.094;5.232;2023-04-15T12:28:09;97136.0;;;-11.58;51.25
63954;BME280;50128;52.094;5.232;2023-04-15T12:29:46;97125.0;;;-11.68;51.63
63954;BME280;50128;52.094;5.232;2023-04-15T12:31:22;97112.0;;;-12.12;52.23
63954;BME280;50128;52.094;5.232;2023-04-15T12:34:35;97122.0;;;-11.69;51.91
63954;BME280;50128;52.094;5.232;2023-04-15T12:36:13;97083.0;;;-11.88;52.24
63954;BME280;50128;52.094;5.232;2023-04-15T12:37:49;97110.0;;;-11.64;51.64
63954;BME280;50128;52.094;5.232;2023-04-15T12:41:03;97136.0;;;-11.29;52.46
63954;BME280;50128;52.094;5.232;2023-04-15T12:42:39;97055.0;;;-11.63;51.36
63954;BME280;50128;52.094;5.232;2023-04-15T12:44:16;97155.0;;;-11.1;50.67
63954;BME280;50128;52.094;5.232;2023-04-15T12:45:52;97203.0;;;-10.89;50.74
63954;BME280;50128;52.094;5.232;2023-04-15T12:49:04;97149.0;;;-11.46;51.46
63954;BME280;50128;52.094;5.232;2023-04-15T12:50:40;97161.0;;;-11.36;52.13
63954;BME280;50128;52.094;5.232;2023-04-15T12:52:16;97235.0;;;-11.0;52.3
63954;BME280;50128;52.094;5.232;2023-04-15T12:55:29;97123.0;;;-11.79;52.29
63954;BME280;50128;52.094;5.232;2023-04-15T12:57:05;97218.0;;;-11.33;52.04
63954;BME280;50128;52.094;5.232;2023-04-15T12:58:41;97171.0;;;-11.82;52.4
63954;BME280;50128;52.094;5.232;2023-04-15T13:01:54;97182.0;;;-11.33;52.93
63954;BME280;50128;52.094;5.232;2023-04-15T13:03:30;97185.0;;;-11.3;51.79
63954;BME280;50128;52.094;5.232;2023-04-15T13:05:07;97203.0;;;-11.36;52.23